createdAt,value
2023-03-11T00:00:01.879Z,0.00
2023-03-11T00:01:01.836Z,0.00
2023-03-11T00:02:01.817Z,0.00
2023-03-11T00:03:01.763Z,0.00
2023-03-11T00:04:01.787Z,0.00
2023-03-11T00:05:01.751Z,0.00
2023-03-11T00:06:01.652Z,0.00
2023-03-11T00:07:01.647Z,0.00
2023-03-11T00:08:01.572Z,0.00
2023-03-11T00:09:01.526Z,0.00
2023-03-11T00:10:01.903Z,0.00
2023-03-11T00:11:01.468Z,0.00
2023-03-11T00:12:01.411Z,0.00
2023-03-11T00:13:01.405Z,0.00
2023-03-11T00:14:01.328Z,0.00
2023-03-11T00:15:01.310Z,0.00
2023-03-11T00:16:01.343Z,0.00
2023-03-11T00:17:01.224Z,0.00
2023-03-11T00:18:01.245Z,0.00
2023-03-11T00:19:01.154Z,0.00
2023-03-11T00:20:01.100Z,0.00
2023-03-11T00:21:01.103Z,0.00
2023-03-11T00:22:01.086Z,0.00
2023-03-11T00:23:01.007Z,0.00
2023-03-11T00:24:00.983Z,0.00
2023-03-11T00:25:00.913Z,0.00
2023-03-11T00:26:00.877Z,0.00
2023-03-11T00:27:00.835Z,0.00
2023-03-11T00:28:00.856Z,0.00
2023-03-11T00:29:00.761Z,0.00
2023-03-11T00:30:00.730Z,0.00
2023-03-11T00:31:00.715Z,0.00
2023-03-11T00:32:00.644Z,0.00
2023-03-11T00:33:00.712Z,0.00
2023-03-11T00:34:00.625Z,0.00
2023-03-11T00:35:00.533Z,0.00
2023-03-11T00:36:00.529Z,0.00
2023-03-11T00:37:00.451Z,0.00
2023-03-11T00:38:00.407Z,0.00
2023-03-11T00:39:00.458Z,0.00
2023-03-11T00:40:00.412Z,0.00
2023-03-11T00:41:00.288Z,0.00
2023-03-11T00:42:00.247Z,0.00
2023-03-11T00:43:00.257Z,0.00
2023-03-11T00:44:00.164Z,0.00
2023-03-11T00:45:00.135Z,0.00
2023-03-11T00:46:00.182Z,0.00
2023-03-11T00:47:00.093Z,0.00
2023-03-11T00:48:00.016Z,0.00
2023-03-11T00:48:59.988Z,0.00
2023-03-11T00:49:59.938Z,0.00
2023-03-11T00:50:59.900Z,0.00
2023-03-11T00:51:59.908Z,0.00
2023-03-11T00:52:59.853Z,0.00
2023-03-11T00:53:59.776Z,0.00
2023-03-11T00:54:59.742Z,0.00
2023-03-11T00:55:59.708Z,0.00
2023-03-11T00:56:59.684Z,0.00
2023-03-11T00:57:59.680Z,0.00
2023-03-11T00:58:59.594Z,0.00
2023-03-11T00:59:59.568Z,0.00
2023-03-11T01:00:59.546Z,0.00
2023-03-11T01:01:59.479Z,0.00
2023-03-11T01:02:59.423Z,0.00
2023-03-11T01:03:59.457Z,0.00
2023-03-11T01:04:59.363Z,0.00
2023-03-11T01:05:59.325Z,0.00
2023-03-11T01:06:59.284Z,0.00
2023-03-11T01:07:59.274Z,0.00
2023-03-11T01:08:59.197Z,0.00
2023-03-11T01:09:59.213Z,0.00
2023-03-11T01:10:59.143Z,0.00
2023-03-11T01:11:59.079Z,0.00
2023-03-11T01:12:59.075Z,0.00
2023-03-11T01:13:59.002Z,0.00
2023-03-11T01:14:58.982Z,0.00
2023-03-11T01:15:59.009Z,0.00
2023-03-11T01:16:58.904Z,0.00
2023-03-11T01:17:58.846Z,0.00
2023-03-11T01:18:58.812Z,0.00
2023-03-11T01:19:58.779Z,0.00
2023-03-11T01:20:58.804Z,0.00
2023-03-11T01:21:58.758Z,0.00
2023-03-11T01:22:58.662Z,0.00
2023-03-11T01:23:58.609Z,0.00
2023-03-11T01:24:58.581Z,0.00
2023-03-11T01:25:58.540Z,0.00
2023-03-11T01:26:58.581Z,0.00
2023-03-11T01:27:58.463Z,0.00
2023-03-11T01:28:58.423Z,0.00
2023-03-11T01:30:05.111Z,0.00
2023-03-11T01:30:58.371Z,0.00
2023-03-11T01:31:58.303Z,0.00
2023-03-11T01:32:58.342Z,0.00
2023-03-11T01:33:58.236Z,0.00
2023-03-11T01:34:58.212Z,0.00
2023-03-11T01:35:58.254Z,0.00
2023-03-11T01:36:58.097Z,0.00
2023-03-11T01:37:58.075Z,0.00
2023-03-11T01:38:58.038Z,0.00
2023-03-11T01:39:57.984Z,0.00
2023-03-11T01:40:58.290Z,0.00
2023-03-11T01:41:57.938Z,0.00
2023-03-11T01:42:57.884Z,0.00
2023-03-11T01:43:57.821Z,0.00
2023-03-11T01:44:57.796Z,0.00
2023-03-11T01:45:57.882Z,0.00
2023-03-11T01:46:57.748Z,0.00
2023-03-11T01:47:57.677Z,0.00
2023-03-11T01:48:57.688Z,0.00
2023-03-11T01:49:57.604Z,0.00
2023-03-11T01:50:57.589Z,0.00
2023-03-11T01:51:57.623Z,0.00
2023-03-11T01:52:57.476Z,0.00
2023-03-11T01:53:57.467Z,0.00
2023-03-11T01:54:57.401Z,0.00
2023-03-11T01:55:57.390Z,0.00
2023-03-11T01:56:57.337Z,0.00
2023-03-11T01:57:57.354Z,0.00
2023-03-11T01:58:57.324Z,0.00
2023-03-11T01:59:57.254Z,0.00
2023-03-11T02:00:57.257Z,0.00
2023-03-11T02:01:57.228Z,0.00
2023-03-11T02:02:57.359Z,0.00
2023-03-11T02:03:57.110Z,0.00
2023-03-11T02:04:57.096Z,0.00
2023-03-11T02:05:57.067Z,0.00
2023-03-11T02:06:56.945Z,0.00
2023-03-11T02:07:56.960Z,0.00
2023-03-11T02:08:56.999Z,0.00
2023-03-11T02:09:56.825Z,0.00
2023-03-11T02:10:56.784Z,0.00
2023-03-11T02:11:56.757Z,0.00
2023-03-11T02:12:56.726Z,0.00
2023-03-11T02:13:56.666Z,0.00
2023-03-11T02:14:56.715Z,0.00
2023-03-11T02:15:56.606Z,0.00
2023-03-11T02:16:56.540Z,0.00
2023-03-11T02:17:56.533Z,0.00
2023-03-11T02:18:56.459Z,0.00
2023-03-11T02:19:56.437Z,0.00
2023-03-11T02:20:56.450Z,0.00
2023-03-11T02:21:56.364Z,0.00
2023-03-11T02:22:56.310Z,0.00
2023-03-11T02:23:56.283Z,0.00
2023-03-11T02:24:56.245Z,0.00
2023-03-11T02:25:56.293Z,0.00
2023-03-11T02:26:56.313Z,0.00
2023-03-11T02:27:56.118Z,0.00
2023-03-11T02:28:56.070Z,0.00
2023-03-11T02:29:56.058Z,0.00
2023-03-11T02:30:56.093Z,0.00
2023-03-11T02:31:56.073Z,0.00
2023-03-11T02:32:55.925Z,0.00
2023-03-11T02:33:55.909Z,0.00
2023-03-11T02:34:55.837Z,0.00
2023-03-11T02:35:55.931Z,0.00
2023-03-11T02:36:55.761Z,0.00
2023-03-11T02:37:55.733Z,0.00
2023-03-11T02:38:55.683Z,0.00
2023-03-11T02:39:55.684Z,0.00
2023-03-11T02:40:55.705Z,0.00
2023-03-11T02:41:55.575Z,0.00
2023-03-11T02:42:55.534Z,0.00
2023-03-11T02:43:55.505Z,0.00
2023-03-11T02:44:55.452Z,0.00
2023-03-11T02:45:55.488Z,0.00
2023-03-11T02:46:55.418Z,0.00
2023-03-11T02:47:55.337Z,0.00
2023-03-11T02:48:55.301Z,0.00
2023-03-11T02:49:55.255Z,0.00
2023-03-11T02:50:55.290Z,0.00
2023-03-11T02:51:55.209Z,0.00
2023-03-11T02:52:55.153Z,0.00
2023-03-11T02:53:55.110Z,0.00
2023-03-11T02:54:55.070Z,0.00
2023-03-11T02:55:55.034Z,0.00
2023-03-11T02:56:55.043Z,0.00
2023-03-11T02:57:54.953Z,0.00
2023-03-11T02:58:54.905Z,0.00
2023-03-11T02:59:54.861Z,0.00
2023-03-11T03:00:54.849Z,0.00
2023-03-11T03:01:54.801Z,0.00
2023-03-11T03:02:54.809Z,0.00
2023-03-11T03:03:54.762Z,0.00
2023-03-11T03:04:54.654Z,0.00
2023-03-11T03:05:54.639Z,0.00
2023-03-11T03:06:54.576Z,0.00
2023-03-11T03:07:54.580Z,0.00
2023-03-11T03:08:54.629Z,0.00
2023-03-11T03:09:54.498Z,0.00
2023-03-11T03:10:54.423Z,0.00
2023-03-11T03:11:54.419Z,0.00
2023-03-11T03:12:54.345Z,0.00
2023-03-11T03:13:54.309Z,0.00
2023-03-11T03:14:54.376Z,0.00
2023-03-11T03:15:54.226Z,0.00
2023-03-11T03:16:54.306Z,0.00
2023-03-11T03:17:54.196Z,0.00
2023-03-11T03:18:54.121Z,0.00
2023-03-11T03:19:54.101Z,0.00
2023-03-11T03:20:54.116Z,0.00
2023-03-11T03:21:54.026Z,0.00
2023-03-11T03:22:53.998Z,0.00
2023-03-11T03:23:54.069Z,0.00
2023-03-11T03:24:53.892Z,0.00
2023-03-11T03:25:53.855Z,0.00
2023-03-11T03:26:53.876Z,0.00
2023-03-11T03:27:53.799Z,0.00
2023-03-11T03:28:53.718Z,0.00
2023-03-11T03:29:53.714Z,0.00
2023-03-11T03:30:53.650Z,0.00
2023-03-11T03:31:53.809Z,0.00
2023-03-11T03:32:53.623Z,0.00
2023-03-11T03:33:53.529Z,0.00
2023-03-11T03:34:53.500Z,0.00
2023-03-11T03:35:53.525Z,0.00
2023-03-11T03:36:53.427Z,0.00
2023-03-11T03:37:53.443Z,0.00
2023-03-11T03:38:53.334Z,0.00
2023-03-11T03:39:53.298Z,0.00
2023-03-11T03:40:53.256Z,0.00
2023-03-11T03:41:53.217Z,0.00
2023-03-11T03:42:53.189Z,0.00
2023-03-11T03:43:53.212Z,0.00
2023-03-11T03:44:53.103Z,0.00
2023-03-11T03:45:53.081Z,0.00
2023-03-11T03:46:53.023Z,0.00
2023-03-11T03:47:53.004Z,0.00
2023-03-11T03:48:52.951Z,0.00
2023-03-11T03:49:52.966Z,0.00
2023-03-11T03:50:52.869Z,0.00
2023-03-11T03:51:52.836Z,0.00
2023-03-11T03:52:52.789Z,0.00
2023-03-11T03:53:52.754Z,0.00
2023-03-11T03:54:52.704Z,0.00
2023-03-11T03:55:52.727Z,0.00
2023-03-11T03:56:52.647Z,0.00
2023-03-11T03:57:52.596Z,0.00
2023-03-11T03:58:52.553Z,0.00
2023-03-11T03:59:52.517Z,0.00
2023-03-11T04:00:52.477Z,0.00
2023-03-11T04:01:52.545Z,0.00
2023-03-11T04:02:52.399Z,0.00
2023-03-11T04:03:52.372Z,0.00
2023-03-11T04:04:52.332Z,0.00
2023-03-11T04:05:52.291Z,0.00
2023-03-11T04:06:52.247Z,0.00
2023-03-11T04:07:52.277Z,0.00
2023-03-11T04:08:52.177Z,0.00
2023-03-11T04:09:52.121Z,0.00
2023-03-11T04:10:52.094Z,0.00
2023-03-11T04:11:52.052Z,0.00
2023-03-11T04:12:52.011Z,0.00
2023-03-11T04:13:52.093Z,0.00
2023-03-11T04:14:51.935Z,0.00
2023-03-11T04:15:51.918Z,0.00
2023-03-11T04:16:51.899Z,0.00
2023-03-11T04:17:51.837Z,0.00
2023-03-11T04:18:51.784Z,0.00
2023-03-11T04:19:51.797Z,0.00
2023-03-11T04:20:51.747Z,0.00
2023-03-11T04:21:51.665Z,0.00
2023-03-11T04:22:51.627Z,0.00
2023-03-11T04:23:51.590Z,0.00
2023-03-11T04:24:51.555Z,0.00
2023-03-11T04:25:51.563Z,0.00
2023-03-11T04:26:51.466Z,0.00
2023-03-11T04:27:51.432Z,0.00
2023-03-11T04:28:51.395Z,0.00
2023-03-11T04:29:51.372Z,0.00
2023-03-11T04:30:51.394Z,0.00
2023-03-11T04:31:51.266Z,0.00
2023-03-11T04:32:51.305Z,0.00
2023-03-11T04:33:51.220Z,0.00
2023-03-11T04:34:51.151Z,0.00
2023-03-11T04:35:51.222Z,0.00
2023-03-11T04:36:51.073Z,0.00
2023-03-11T04:37:51.034Z,0.00
2023-03-11T04:38:50.996Z,0.00
2023-03-11T04:39:50.958Z,0.00
2023-03-11T04:40:50.916Z,0.00
2023-03-11T04:41:50.938Z,0.00
2023-03-11T04:42:50.852Z,0.00
2023-03-11T04:43:50.808Z,0.00
2023-03-11T04:44:50.768Z,0.00
2023-03-11T04:45:50.768Z,0.00
2023-03-11T04:46:50.688Z,0.00
2023-03-11T04:47:50.713Z,0.00
2023-03-11T04:48:50.607Z,0.00
2023-03-11T04:49:50.564Z,0.00
2023-03-11T04:50:50.533Z,0.00
2023-03-11T04:51:50.503Z,0.00
2023-03-11T04:52:50.462Z,0.00
2023-03-11T04:53:50.471Z,0.00
2023-03-11T04:54:50.374Z,0.00
2023-03-11T04:55:50.386Z,0.00
2023-03-11T04:56:50.299Z,0.00
2023-03-11T04:57:50.264Z,0.00
2023-03-11T04:58:50.210Z,0.00
2023-03-11T04:59:50.199Z,0.00
2023-03-11T05:00:50.204Z,0.00
2023-03-11T05:01:50.121Z,0.00
2023-03-11T05:02:50.053Z,0.00
2023-03-11T05:03:50.024Z,0.00
2023-03-11T05:04:50.015Z,0.00
2023-03-11T05:05:50.008Z,0.00
2023-03-11T05:06:49.905Z,4.00
2023-03-11T05:07:49.873Z,4.00
2023-03-11T05:08:49.822Z,4.00
2023-03-11T05:09:49.794Z,4.00
2023-03-11T05:10:49.743Z,8.00
2023-03-11T05:11:49.766Z,4.00
2023-03-11T05:12:49.664Z,8.00
2023-03-11T05:13:49.627Z,12.00
2023-03-11T05:14:49.593Z,12.00
2023-03-11T05:15:49.580Z,16.00
2023-03-11T05:16:49.566Z,16.00
2023-03-11T05:17:49.598Z,20.00
2023-03-11T05:18:49.450Z,24.00
2023-03-11T05:19:49.396Z,28.00
2023-03-11T05:20:49.367Z,28.00
2023-03-11T05:21:49.381Z,32.00
2023-03-11T05:22:49.284Z,36.00
2023-03-11T05:23:49.249Z,48.00
2023-03-11T05:24:49.200Z,56.00
2023-03-11T05:25:49.162Z,68.00
2023-03-11T05:26:49.181Z,76.00
2023-03-11T05:27:49.084Z,88.00
2023-03-11T05:28:49.052Z,112.00
2023-03-11T05:29:49.024Z,120.00
2023-03-11T05:30:48.999Z,148.00
2023-03-11T05:31:48.958Z,164.00
2023-03-11T05:32:49.013Z,164.00
2023-03-11T05:33:48.864Z,192.00
2023-03-11T05:34:48.824Z,184.00
2023-03-11T05:35:48.810Z,204.00
2023-03-11T05:36:48.739Z,204.00
2023-03-11T05:37:48.703Z,228.00
2023-03-11T05:38:48.724Z,244.00
2023-03-11T05:39:48.628Z,228.00
2023-03-11T05:40:48.594Z,280.00
2023-03-11T05:41:48.558Z,276.00
2023-03-11T05:42:48.522Z,256.00
2023-03-11T05:43:48.481Z,252.00
2023-03-11T05:44:48.484Z,296.00
2023-03-11T05:45:48.389Z,304.00
2023-03-11T05:46:48.394Z,284.00
2023-03-11T05:47:48.336Z,320.00
2023-03-11T05:48:48.295Z,368.00
2023-03-11T05:49:48.259Z,344.00
2023-03-11T05:50:48.293Z,368.00
2023-03-11T05:51:48.214Z,356.00
2023-03-11T05:52:48.133Z,344.00
2023-03-11T05:53:48.095Z,376.00
2023-03-11T05:54:48.052Z,372.00
2023-03-11T05:55:48.071Z,436.00
2023-03-11T05:56:47.963Z,412.00
2023-03-11T05:57:47.928Z,392.00
2023-03-11T05:58:47.894Z,400.00
2023-03-11T05:59:47.847Z,396.00
2023-03-11T06:00:47.809Z,396.00
2023-03-11T06:01:47.831Z,468.00
2023-03-11T06:02:47.740Z,488.00
2023-03-11T06:03:47.762Z,572.00
2023-03-11T06:04:47.757Z,600.00
2023-03-11T06:05:47.639Z,580.00
2023-03-11T06:06:47.587Z,740.00
2023-03-11T06:07:47.588Z,724.00
2023-03-11T06:08:47.508Z,684.00
2023-03-11T06:09:47.457Z,788.00
2023-03-11T06:10:48.986Z,880.00
2023-03-11T06:11:47.388Z,904.00
2023-03-11T06:12:47.392Z,900.00
2023-03-11T06:13:47.315Z,856.00
2023-03-11T06:14:47.369Z,852.00
2023-03-11T06:15:47.225Z,824.00
2023-03-11T06:16:47.184Z,1036.00
2023-03-11T06:17:47.223Z,1120.00
2023-03-11T06:18:47.104Z,1424.00
2023-03-11T06:19:47.067Z,1648.00
2023-03-11T06:20:47.050Z,1892.00
2023-03-11T06:21:46.994Z,1584.00
2023-03-11T06:22:47.007Z,1320.00
2023-03-11T06:23:46.920Z,1348.00
2023-03-11T06:24:46.893Z,1320.00
2023-03-11T06:25:46.829Z,1352.00
2023-03-11T06:26:46.800Z,1464.00
2023-03-11T06:27:46.819Z,1456.00
2023-03-11T06:28:46.717Z,1740.00
2023-03-11T06:29:48.634Z,1636.00
2023-03-11T06:30:46.642Z,2144.00
2023-03-11T06:31:46.652Z,2040.00
2023-03-11T06:32:46.654Z,1988.00
2023-03-11T06:33:46.528Z,2120.00
2023-03-11T06:34:46.488Z,2096.00
2023-03-11T06:35:46.485Z,1456.00
2023-03-11T06:36:46.410Z,1620.00
2023-03-11T06:37:46.426Z,1376.00
2023-03-11T06:38:55.802Z,1516.00
2023-03-11T06:39:46.294Z,1748.00
2023-03-11T06:40:46.250Z,1564.00
2023-03-11T06:41:55.844Z,1800.00
2023-03-11T06:42:46.249Z,1784.00
2023-03-11T06:43:55.355Z,2144.00
2023-03-11T06:44:55.392Z,2236.00
2023-03-11T06:45:55.453Z,2264.00
2023-03-11T06:46:46.020Z,2176.00
2023-03-11T06:47:55.007Z,2036.00
2023-03-11T06:48:45.940Z,2412.00
2023-03-11T06:49:46.390Z,1928.00
2023-03-11T06:50:48.425Z,1684.00
2023-03-11T06:51:45.827Z,1660.00
2023-03-11T06:52:55.154Z,1480.00
2023-03-11T06:53:45.795Z,1924.00
2023-03-11T06:54:45.707Z,2400.00
2023-03-11T06:55:45.675Z,2308.00
2023-03-11T06:56:45.633Z,2132.00
2023-03-11T06:57:45.605Z,2576.00
2023-03-11T06:58:45.604Z,3056.00
2023-03-11T06:59:45.513Z,3536.00
2023-03-11T07:00:45.493Z,3380.00
2023-03-11T07:01:45.439Z,3628.00
2023-03-11T07:02:45.441Z,3476.00
2023-03-11T07:03:45.372Z,3832.00
2023-03-11T07:04:45.370Z,3452.00
2023-03-11T07:05:45.283Z,3560.00
2023-03-11T07:06:45.248Z,3680.00
2023-03-11T07:07:45.207Z,3520.00
2023-03-11T07:08:45.183Z,3804.00
2023-03-11T07:09:45.118Z,4820.00
2023-03-11T07:10:45.147Z,4088.00
2023-03-11T07:11:45.122Z,3828.00
2023-03-11T07:12:45.014Z,4964.00
2023-03-11T07:13:44.983Z,4172.00
2023-03-11T07:14:44.944Z,5080.00
2023-03-11T07:15:44.896Z,5000.00
2023-03-11T07:16:44.934Z,4092.00
2023-03-11T07:17:44.827Z,5224.00
2023-03-11T07:18:44.843Z,5068.00
2023-03-11T07:19:44.742Z,5588.00
2023-03-11T07:20:44.717Z,5460.00
2023-03-11T07:21:44.720Z,5740.00
2023-03-11T07:22:44.622Z,5940.00
2023-03-11T07:23:44.592Z,4852.00
2023-03-11T07:24:44.547Z,5488.00
2023-03-11T07:25:44.509Z,4524.00
2023-03-11T07:26:44.720Z,4728.00
2023-03-11T07:32:38.934Z,6280.00
2023-03-11T07:33:20.880Z,5816.00
2023-03-11T07:34:20.603Z,6544.00
2023-03-11T07:35:20.578Z,7448.00
2023-03-11T07:36:20.530Z,7096.00
2023-03-11T07:37:20.496Z,8040.00
2023-03-11T07:38:21.038Z,7536.00
2023-03-11T07:39:20.425Z,6980.00
2023-03-11T07:40:20.416Z,8140.00
2023-03-11T07:41:20.562Z,7684.00
2023-03-11T07:42:20.674Z,7832.00
2023-03-11T07:43:20.274Z,7944.00
2023-03-11T07:44:20.469Z,7316.00
2023-03-11T07:45:20.246Z,8148.00
2023-03-11T07:46:20.160Z,7208.00
2023-03-11T07:47:20.116Z,6720.00
2023-03-11T07:48:20.070Z,5632.00
2023-03-11T07:49:20.107Z,5004.00
2023-03-11T07:50:20.057Z,4936.00
2023-03-11T07:51:19.973Z,5568.00
2023-03-11T07:52:19.919Z,4812.00
2023-03-11T07:53:19.885Z,6812.00
2023-03-11T07:54:19.844Z,6740.00
2023-03-11T07:55:19.817Z,6464.00
2023-03-11T07:56:19.882Z,5740.00
2023-03-11T07:57:19.761Z,8380.00
2023-03-11T07:58:19.707Z,7876.00
2023-03-11T07:59:19.661Z,9928.00
2023-03-11T08:00:19.648Z,8504.00
2023-03-11T08:01:19.590Z,9376.00
2023-03-11T08:02:19.683Z,8516.00
2023-03-11T08:03:19.535Z,8724.00
2023-03-11T08:04:19.470Z,9140.00
2023-03-11T08:05:19.435Z,8264.00
2023-03-11T08:06:19.390Z,8264.00
2023-03-11T08:07:19.357Z,8280.00
2023-03-11T08:08:19.398Z,6408.00
2023-03-11T08:09:19.287Z,7892.00
2023-03-11T08:10:19.254Z,8916.00
2023-03-11T08:11:19.208Z,10240.00
2023-03-11T08:12:19.169Z,10272.00
2023-03-11T08:13:19.135Z,8600.00
2023-03-11T08:14:19.167Z,10060.00
2023-03-11T08:15:19.058Z,8908.00
2023-03-11T08:16:19.020Z,6740.00
2023-03-11T08:17:19.271Z,9408.00
2023-03-11T08:18:19.007Z,9740.00
2023-03-11T08:19:18.908Z,9028.00
2023-03-11T08:20:18.865Z,8936.00
2023-03-11T08:21:18.829Z,6656.00
2023-03-11T08:22:18.799Z,6752.00
2023-03-11T08:23:18.830Z,6396.00
2023-03-11T08:24:18.719Z,5988.00
2023-03-11T08:25:18.689Z,8356.00
2023-03-11T08:26:18.652Z,12576.00
2023-03-11T08:27:18.607Z,9084.00
2023-03-11T08:28:18.630Z,9560.00
2023-03-11T08:29:18.532Z,10844.00
2023-03-11T08:30:18.522Z,13348.00
2023-03-11T08:31:18.487Z,12668.00
2023-03-11T08:32:18.525Z,7880.00
2023-03-11T08:33:18.485Z,7436.00
2023-03-11T08:34:18.349Z,10792.00
2023-03-11T08:35:18.314Z,11608.00
2023-03-11T08:36:18.270Z,12204.00
2023-03-11T08:37:18.233Z,11740.00
2023-03-11T08:38:18.195Z,11236.00
2023-03-11T08:39:18.242Z,9672.00
2023-03-11T08:40:18.220Z,8816.00
2023-03-11T08:41:18.094Z,11504.00
2023-03-11T08:42:18.051Z,12848.00
2023-03-11T08:43:18.016Z,12172.00
2023-03-11T08:44:17.983Z,11792.00
2023-03-11T08:45:18.479Z,12796.00
2023-03-11T08:46:17.954Z,11984.00
2023-03-11T08:47:17.878Z,12800.00
2023-03-11T08:48:17.832Z,11508.00
2023-03-11T08:49:17.872Z,12704.00
2023-03-11T08:50:17.835Z,13032.00
2023-03-11T08:51:17.744Z,12632.00
2023-03-11T08:52:17.687Z,12184.00
2023-03-11T08:53:17.652Z,11496.00
2023-03-11T08:54:17.610Z,12696.00
2023-03-11T08:55:17.669Z,13040.00
2023-03-11T08:56:17.537Z,12220.00
2023-03-11T08:57:17.504Z,12032.00
2023-03-11T08:58:17.465Z,12080.00
2023-03-11T08:59:17.432Z,11548.00
2023-03-11T09:00:17.674Z,12000.00
2023-03-11T09:01:17.379Z,11296.00
2023-03-11T09:02:17.460Z,11088.00
2023-03-11T09:03:17.288Z,11292.00
2023-03-11T09:04:17.257Z,10748.00
2023-03-11T09:05:17.210Z,10952.00
2023-03-11T09:06:17.327Z,11684.00
2023-03-11T09:07:17.145Z,10952.00
2023-03-11T09:08:17.106Z,10656.00
2023-03-11T09:09:17.063Z,10152.00
2023-03-11T09:10:17.274Z,9808.00
2023-03-11T09:11:17.225Z,9800.00
2023-03-11T09:12:17.021Z,9160.00
2023-03-11T09:13:16.919Z,9076.00
2023-03-11T09:14:16.949Z,10264.00
2023-03-11T09:15:16.852Z,10108.00
2023-03-11T09:16:16.992Z,11832.00
2023-03-11T09:17:16.773Z,12852.00
2023-03-11T09:18:16.799Z,10088.00
2023-03-11T09:19:16.704Z,9612.00
2023-03-11T09:20:16.684Z,10908.00
2023-03-11T09:21:16.640Z,11492.00
2023-03-11T09:22:16.596Z,11368.00
2023-03-11T09:23:16.577Z,11296.00
2023-03-11T09:24:16.910Z,10260.00
2023-03-11T09:25:16.514Z,9396.00
2023-03-11T09:26:16.475Z,10712.00
2023-03-11T09:27:16.415Z,9996.00
2023-03-11T09:28:16.387Z,9612.00
2023-03-11T09:29:16.344Z,9640.00
2023-03-11T09:30:16.364Z,9328.00
2023-03-11T09:31:16.425Z,9752.00
2023-03-11T09:32:16.252Z,9468.00
2023-03-11T09:33:16.205Z,10608.00
2023-03-11T09:34:16.343Z,12368.00
2023-03-11T09:35:16.206Z,13212.00
2023-03-11T09:36:16.107Z,12336.00
2023-03-11T09:37:16.065Z,13264.00
2023-03-11T09:38:16.115Z,13040.00
2023-03-11T09:39:15.981Z,10328.00
2023-03-11T09:40:15.945Z,9156.00
2023-03-11T09:41:15.916Z,8368.00
2023-03-11T09:42:15.899Z,8884.00
2023-03-11T09:43:15.918Z,8484.00
2023-03-11T09:44:15.874Z,8032.00
2023-03-11T09:45:15.798Z,7616.00
2023-03-11T09:46:15.785Z,7632.00
2023-03-11T09:47:15.738Z,6708.00
2023-03-11T09:48:15.661Z,6776.00
2023-03-11T09:49:15.692Z,7136.00
2023-03-11T09:50:15.609Z,7772.00
2023-03-11T09:51:15.588Z,8332.00
2023-03-11T09:52:15.520Z,7740.00
2023-03-11T09:53:15.478Z,6924.00
2023-03-11T09:54:15.517Z,6596.00
2023-03-11T09:55:15.408Z,7860.00
2023-03-11T09:56:15.375Z,5792.00
2023-03-11T09:57:15.338Z,7004.00
2023-03-11T09:58:15.298Z,6120.00
2023-03-11T09:59:15.321Z,6072.00
2023-03-11T10:00:15.232Z,6528.00
2023-03-11T10:01:15.183Z,6536.00
2023-03-11T10:02:15.236Z,6536.00
2023-03-11T10:03:15.139Z,6840.00
2023-03-11T10:04:15.138Z,7976.00
2023-03-11T10:05:15.045Z,7876.00
2023-03-11T10:06:15.001Z,6428.00
2023-03-11T10:07:15.857Z,5548.00
2023-03-11T10:08:14.921Z,5560.00
2023-03-11T10:09:14.977Z,6736.00
2023-03-11T10:10:14.934Z,5196.00
2023-03-11T10:11:14.854Z,4384.00
2023-03-11T10:12:14.789Z,3728.00
2023-03-11T10:13:14.764Z,4124.00
2023-03-11T10:14:14.723Z,5256.00
2023-03-11T10:15:14.737Z,5668.00
2023-03-11T10:16:14.682Z,5212.00
2023-03-11T10:17:14.606Z,5084.00
2023-03-11T10:18:14.582Z,4860.00
2023-03-11T10:19:14.525Z,4956.00
2023-03-11T10:20:14.485Z,5220.00
2023-03-11T10:21:14.528Z,5264.00
2023-03-11T10:22:14.426Z,5880.00
2023-03-11T10:23:14.385Z,5156.00
2023-03-11T10:24:14.332Z,4804.00
2023-03-11T10:25:14.294Z,6816.00
2023-03-11T10:26:14.256Z,7212.00
2023-03-11T10:27:14.283Z,7244.00
2023-03-11T10:28:14.191Z,8108.00
2023-03-11T10:29:14.156Z,7688.00
2023-03-11T10:30:14.108Z,5960.00
2023-03-11T10:31:14.086Z,5560.00
2023-03-11T10:32:14.436Z,5820.00
2023-03-11T10:33:14.080Z,6580.00
2023-03-11T10:34:13.971Z,6664.00
2023-03-11T10:35:13.928Z,6336.00
2023-03-11T10:36:13.953Z,6796.00
2023-03-11T10:37:13.917Z,8836.00
2023-03-11T10:38:13.824Z,9060.00
2023-03-11T10:39:13.894Z,6616.00
2023-03-11T10:40:13.738Z,8196.00
2023-03-11T10:41:13.800Z,7856.00
2023-03-11T10:42:13.671Z,7040.00
2023-03-11T10:43:13.679Z,7992.00
2023-03-11T10:44:13.723Z,6536.00
2023-03-11T10:45:13.719Z,6584.00
2023-03-11T10:46:13.609Z,8688.00
2023-03-11T10:47:13.513Z,10532.00
2023-03-11T10:48:13.477Z,11104.00
2023-03-11T10:49:13.437Z,11320.00
2023-03-11T10:50:13.371Z,11028.00
2023-03-11T10:51:13.392Z,10244.00
2023-03-11T10:52:13.290Z,9828.00
2023-03-11T10:53:13.267Z,12956.00
2023-03-11T10:54:13.225Z,14072.00
2023-03-11T10:55:13.185Z,14892.00
2023-03-11T10:56:15.143Z,13552.00
2023-03-11T10:57:13.171Z,13280.00
2023-03-11T10:58:13.091Z,13012.00
2023-03-11T10:59:13.036Z,13300.00
2023-03-11T11:00:12.998Z,12432.00
2023-03-11T11:01:13.022Z,12700.00
2023-03-11T11:02:12.941Z,11920.00
2023-03-11T11:03:13.028Z,12672.00
2023-03-11T11:04:12.961Z,11428.00
2023-03-11T11:05:13.138Z,12236.00
2023-03-11T11:06:12.790Z,11628.00
2023-03-11T11:07:12.970Z,11768.00
2023-03-11T11:08:12.760Z,11468.00
2023-03-11T11:09:12.868Z,12672.00
2023-03-11T11:10:12.665Z,13744.00
2023-03-11T11:11:12.669Z,13848.00
2023-03-11T11:12:12.586Z,14700.00
2023-03-11T11:13:12.761Z,14112.00
2023-03-11T11:14:12.738Z,14464.00
2023-03-11T11:15:12.659Z,15504.00
2023-03-11T11:16:12.450Z,13592.00
2023-03-11T11:17:12.395Z,11580.00
2023-03-11T11:18:12.949Z,11056.00
2023-03-11T11:19:12.327Z,11008.00
2023-03-11T11:20:12.318Z,11132.00
2023-03-11T11:21:12.355Z,11556.00
2023-03-11T11:22:12.221Z,11924.00
2023-03-11T11:23:12.195Z,13836.00
2023-03-11T11:24:12.143Z,14316.00
2023-03-11T11:25:12.132Z,13840.00
2023-03-11T11:26:12.085Z,13780.00
2023-03-11T11:27:12.106Z,13852.00
2023-03-11T11:28:12.148Z,13580.00
2023-03-11T11:29:11.987Z,12364.00
2023-03-11T11:30:11.971Z,13276.00
2023-03-11T11:31:12.014Z,13028.00
2023-03-11T11:32:11.998Z,12824.00
2023-03-11T11:33:11.831Z,10308.00
2023-03-11T11:34:11.799Z,11692.00
2023-03-11T11:35:11.757Z,10208.00
2023-03-11T11:36:11.722Z,9340.00
2023-03-11T11:37:11.741Z,10876.00
2023-03-11T11:38:11.709Z,8932.00
2023-03-11T11:39:11.620Z,7248.00
2023-03-11T11:40:11.792Z,7284.00
2023-03-11T11:41:11.646Z,6492.00
2023-03-11T11:42:20.448Z,6452.00
2023-03-11T11:43:11.476Z,6792.00
2023-03-11T11:44:11.471Z,7340.00
2023-03-11T11:45:12.298Z,6748.00
2023-03-11T11:46:11.430Z,6352.00
2023-03-11T11:47:11.384Z,7260.00
2023-03-11T11:48:11.285Z,8372.00
2023-03-11T11:49:11.255Z,8228.00
2023-03-11T11:50:11.224Z,9236.00
2023-03-11T11:51:11.190Z,9756.00
2023-03-11T11:52:11.220Z,9608.00
2023-03-11T11:53:11.128Z,10020.00
2023-03-11T11:54:11.084Z,11292.00
2023-03-11T11:55:11.053Z,12548.00
2023-03-11T11:56:11.012Z,9988.00
2023-03-11T11:57:10.969Z,9844.00
2023-03-11T11:58:11.499Z,9136.00
2023-03-11T11:59:10.916Z,5600.00
2023-03-11T12:00:10.877Z,5552.00
2023-03-11T12:01:10.835Z,5828.00
2023-03-11T12:02:10.808Z,5532.00
2023-03-11T12:03:10.846Z,4944.00
2023-03-11T12:04:10.733Z,4672.00
2023-03-11T12:05:10.744Z,4492.00
2023-03-11T12:06:10.716Z,4540.00
2023-03-11T12:07:10.620Z,4628.00
2023-03-11T12:08:10.602Z,4740.00
2023-03-11T12:09:10.531Z,4964.00
2023-03-11T12:10:22.328Z,5408.00
2023-03-11T12:11:10.483Z,6180.00
2023-03-11T12:12:10.455Z,7184.00
2023-03-11T12:13:10.387Z,8304.00
2023-03-11T12:14:10.409Z,10432.00
2023-03-11T12:15:10.313Z,10668.00
2023-03-11T12:16:10.301Z,13404.00
2023-03-11T12:17:10.285Z,13280.00
2023-03-11T12:18:10.221Z,11024.00
2023-03-11T12:19:10.173Z,10664.00
2023-03-11T12:20:10.201Z,11092.00
2023-03-11T12:21:10.098Z,10000.00
2023-03-11T12:22:10.108Z,9320.00
2023-03-11T12:23:10.049Z,9424.00
2023-03-11T12:24:10.001Z,11548.00
2023-03-11T12:25:09.963Z,10212.00
2023-03-11T12:26:10.172Z,10728.00
2023-03-11T12:27:09.911Z,10596.00
2023-03-11T12:28:09.838Z,8688.00
2023-03-11T12:29:09.811Z,8112.00
2023-03-11T12:30:09.772Z,8572.00
2023-03-11T12:31:09.758Z,8796.00
2023-03-11T12:32:09.756Z,10064.00
2023-03-11T12:33:09.658Z,9828.00
2023-03-11T12:34:09.637Z,11632.00
2023-03-11T12:35:09.590Z,9728.00
2023-03-11T12:36:09.616Z,10188.00